sensor_id;sensor_type;location;lat;lon;timestamp;P1;durP1;ratioP1;P2;durP2;ratioP2
76818;SDS011;65772;51.096;17.006;2023-07-13T00:02:05;60.30;;;38.70;;
76818;SDS011;65772;51.096;17.006;2023-07-13T00:04:36;16.20;;;9.60;;
76818;SDS011;65772;51.096;17.006;2023-07-13T00:07:08;10.60;;;6.00;;
76818;SDS011;65772;51.096;17.006;2023-07-13T00:09:38;11.30;;;6.00;;
76818;SDS011;65772;51.096;17.006;2023-07-13T00:12:23;9.40;;;5.00;;
76818;SDS011;65772;51.096;17.006;2023-07-13T00:14:56;8.00;;;4.90;;
76818;SDS011;65772;51.096;17.006;2023-07-13T00:17:28;7.70;;;4.90;;
76818;SDS011;65772;51.096;17.006;2023-07-13T00:19:59;9.40;;;5.10;;
76818;SDS011;65772;51.096;17.006;2023-07-13T00:22:30;7.10;;;4.60;;
76818;SDS011;65772;51.096;17.006;2023-07-13T00:25:00;10.00;;;4.80;;
76818;SDS011;65772;51.096;17.006;2023-07-13T00:27:31;8.10;;;4.60;;
76818;SDS011;65772;51.096;17.006;2023-07-13T00:30:02;11.00;;;5.40;;
76818;SDS011;65772;51.096;17.006;2023-07-13T00:32:34;11.10;;;5.00;;
76818;SDS011;65772;51.096;17.006;2023-07-13T00:35:07;9.00;;;5.50;;
76818;SDS011;65772;51.096;17.006;2023-07-13T00:37:38;12.30;;;4.90;;
76818;SDS011;65772;51.096;17.006;2023-07-13T00:40:10;12.70;;;5.40;;
76818;SDS011;65772;51.096;17.006;2023-07-13T00:42:42;9.60;;;5.60;;
76818;SDS011;65772;51.096;17.006;2023-07-13T00:48:22;11.20;;;5.30;;
76818;SDS011;65772;51.096;17.006;2023-07-13T00:50:56;10.90;;;6.00;;
76818;SDS011;65772;51.096;17.006;2023-07-13T00:53:29;8.70;;;5.00;;
76818;SDS011;65772;51.096;17.006;2023-07-13T00:56:02;13.60;;;8.10;;
76818;SDS011;65772;51.096;17.006;2023-07-13T00:58:35;9.80;;;5.70;;
76818;SDS011;65772;51.096;17.006;2023-07-13T01:01:06;9.50;;;5.40;;
76818;SDS011;65772;51.096;17.006;2023-07-13T01:03:36;11.10;;;5.80;;
76818;SDS011;65772;51.096;17.006;2023-07-13T01:06:08;9.30;;;5.10;;
76818;SDS011;65772;51.096;17.006;2023-07-13T01:08:40;10.20;;;5.50;;
76818;SDS011;65772;51.096;17.006;2023-07-13T01:11:10;8.10;;;5.30;;
76818;SDS011;65772;51.096;17.006;2023-07-13T01:13:41;10.00;;;5.10;;
76818;SDS011;65772;51.096;17.006;2023-07-13T01:16:13;9.30;;;5.10;;
76818;SDS011;65772;51.096;17.006;2023-07-13T01:18:48;9.00;;;5.30;;
76818;SDS011;65772;51.096;17.006;2023-07-13T01:21:18;8.70;;;4.90;;
76818;SDS011;65772;51.096;17.006;2023-07-13T01:23:49;10.70;;;5.60;;
76818;SDS011;65772;51.096;17.006;2023-07-13T01:26:21;9.20;;;5.30;;
76818;SDS011;65772;51.096;17.006;2023-07-13T01:28:51;10.30;;;5.40;;
76818;SDS011;65772;51.096;17.006;2023-07-13T01:31:24;9.80;;;5.70;;
76818;SDS011;65772;51.096;17.006;2023-07-13T01:33:55;7.70;;;5.00;;
76818;SDS011;65772;51.096;17.006;2023-07-13T01:36:26;10.40;;;5.80;;
76818;SDS011;65772;51.096;17.006;2023-07-13T01:38:56;10.30;;;5.40;;
76818;SDS011;65772;51.096;17.006;2023-07-13T01:41:28;10.50;;;5.20;;
76818;SDS011;65772;51.096;17.006;2023-07-13T01:43:58;9.20;;;4.70;;
76818;SDS011;65772;51.096;17.006;2023-07-13T01:46:29;12.30;;;5.10;;
76818;SDS011;65772;51.096;17.006;2023-07-13T01:48:59;10.70;;;4.80;;
76818;SDS011;65772;51.096;17.006;2023-07-13T01:51:30;9.80;;;5.20;;
76818;SDS011;65772;51.096;17.006;2023-07-13T01:54:00;12.00;;;5.30;;
76818;SDS011;65772;51.096;17.006;2023-07-13T01:56:31;8.00;;;5.00;;
76818;SDS011;65772;51.096;17.006;2023-07-13T01:59:02;10.60;;;4.80;;
76818;SDS011;65772;51.096;17.006;2023-07-13T02:01:32;8.20;;;4.60;;
76818;SDS011;65772;51.096;17.006;2023-07-13T02:04:04;6.50;;;4.40;;
76818;SDS011;65772;51.096;17.006;2023-07-13T02:06:34;9.20;;;5.20;;
76818;SDS011;65772;51.096;17.006;2023-07-13T02:09:05;9.70;;;4.50;;
76818;SDS011;65772;51.096;17.006;2023-07-13T02:11:35;7.40;;;4.40;;
76818;SDS011;65772;51.096;17.006;2023-07-13T02:14:06;7.60;;;4.40;;
76818;SDS011;65772;51.096;17.006;2023-07-13T02:16:37;8.10;;;4.50;;
76818;SDS011;65772;51.096;17.006;2023-07-13T02:19:07;8.90;;;4.70;;
76818;SDS011;65772;51.096;17.006;2023-07-13T02:21:38;10.70;;;4.50;;
76818;SDS011;65772;51.096;17.006;2023-07-13T02:24:08;7.90;;;4.50;;
76818;SDS011;65772;51.096;17.006;2023-07-13T02:26:45;9.70;;;4.80;;
76818;SDS011;65772;51.096;17.006;2023-07-13T02:29:16;7.30;;;4.40;;
76818;SDS011;65772;51.096;17.006;2023-07-13T02:31:46;7.20;;;4.30;;
76818;SDS011;65772;51.096;17.006;2023-07-13T02:34:17;7.40;;;3.70;;
76818;SDS011;65772;51.096;17.006;2023-07-13T02:36:47;7.10;;;4.20;;
76818;SDS011;65772;51.096;17.006;2023-07-13T02:39:18;7.80;;;4.20;;
76818;SDS011;65772;51.096;17.006;2023-07-13T02:41:48;7.50;;;3.80;;
76818;SDS011;65772;51.096;17.006;2023-07-13T02:44:19;8.60;;;4.50;;
76818;SDS011;65772;51.096;17.006;2023-07-13T02:46:49;8.70;;;4.20;;
76818;SDS011;65772;51.096;17.006;2023-07-13T02:49:20;9.30;;;3.80;;
76818;SDS011;65772;51.096;17.006;2023-07-13T02:51:51;7.90;;;3.90;;
76818;SDS011;65772;51.096;17.006;2023-07-13T02:54:21;6.20;;;3.80;;
76818;SDS011;65772;51.096;17.006;2023-07-13T02:56:52;7.50;;;4.00;;
76818;SDS011;65772;51.096;17.006;2023-07-13T02:59:22;8.60;;;3.80;;
76818;SDS011;65772;51.096;17.006;2023-07-13T03:01:53;8.20;;;3.90;;
76818;SDS011;65772;51.096;17.006;2023-07-13T03:04:24;7.50;;;4.40;;
76818;SDS011;65772;51.096;17.006;2023-07-13T03:06:54;8.10;;;3.90;;
76818;SDS011;65772;51.096;17.006;2023-07-13T03:09:30;7.40;;;4.20;;
76818;SDS011;65772;51.096;17.006;2023-07-13T03:12:02;7.70;;;4.40;;
76818;SDS011;65772;51.096;17.006;2023-07-13T03:14:34;8.30;;;5.40;;
76818;SDS011;65772;51.096;17.006;2023-07-13T03:17:06;12.00;;;6.90;;
76818;SDS011;65772;51.096;17.006;2023-07-13T03:19:38;9.10;;;5.10;;
76818;SDS011;65772;51.096;17.006;2023-07-13T03:22:09;9.50;;;5.00;;
76818;SDS011;65772;51.096;17.006;2023-07-13T03:24:40;9.00;;;4.90;;
76818;SDS011;65772;51.096;17.006;2023-07-13T03:27:10;8.30;;;4.80;;
76818;SDS011;65772;51.096;17.006;2023-07-13T03:29:42;7.50;;;4.90;;
76818;SDS011;65772;51.096;17.006;2023-07-13T03:32:14;7.80;;;4.60;;
76818;SDS011;65772;51.096;17.006;2023-07-13T03:34:44;8.50;;;4.70;;
76818;SDS011;65772;51.096;17.006;2023-07-13T03:37:15;7.50;;;4.40;;
76818;SDS011;65772;51.096;17.006;2023-07-13T03:39:46;11.30;;;4.80;;
76818;SDS011;65772;51.096;17.006;2023-07-13T03:42:17;8.40;;;4.30;;
76818;SDS011;65772;51.096;17.006;2023-07-13T03:44:47;7.70;;;4.30;;
76818;SDS011;65772;51.096;17.006;2023-07-13T03:47:20;7.50;;;4.80;;
76818;SDS011;65772;51.096;17.006;2023-07-13T03:49:51;7.20;;;4.60;;
76818;SDS011;65772;51.096;17.006;2023-07-13T03:52:21;7.60;;;4.30;;
76818;SDS011;65772;51.096;17.006;2023-07-13T03:54:52;6.10;;;4.00;;
76818;SDS011;65772;51.096;17.006;2023-07-13T03:57:23;7.90;;;4.20;;
76818;SDS011;65772;51.096;17.006;2023-07-13T03:59:54;7.50;;;4.20;;
76818;SDS011;65772;51.096;17.006;2023-07-13T04:02:25;7.80;;;4.50;;
76818;SDS011;65772;51.096;17.006;2023-07-13T04:04:55;10.20;;;5.50;;
76818;SDS011;65772;51.096;17.006;2023-07-13T04:11:52;7.40;;;3.90;;
76818;SDS011;65772;51.096;17.006;2023-07-13T04:14:22;7.00;;;3.80;;
76818;SDS011;65772;51.096;17.006;2023-07-13T04:16:53;10.50;;;5.10;;
76818;SDS011;65772;51.096;17.006;2023-07-13T04:19:24;9.90;;;4.80;;
76818;SDS011;65772;51.096;17.006;2023-07-13T04:21:54;7.80;;;4.50;;
76818;SDS011;65772;51.096;17.006;2023-07-13T04:24:25;6.70;;;4.30;;
76818;SDS011;65772;51.096;17.006;2023-07-13T04:26:55;11.60;;;5.00;;
76818;SDS011;65772;51.096;17.006;2023-07-13T04:29:27;7.70;;;4.70;;
76818;SDS011;65772;51.096;17.006;2023-07-13T04:31:58;8.80;;;4.10;;
76818;SDS011;65772;51.096;17.006;2023-07-13T04:34:28;8.80;;;3.90;;
76818;SDS011;65772;51.096;17.006;2023-07-13T04:36:59;7.50;;;3.80;;
76818;SDS011;65772;51.096;17.006;2023-07-13T04:39:29;5.80;;;3.20;;
76818;SDS011;65772;51.096;17.006;2023-07-13T04:42:00;7.80;;;3.60;;
76818;SDS011;65772;51.096;17.006;2023-07-13T04:44:31;10.50;;;3.80;;
76818;SDS011;65772;51.096;17.006;2023-07-13T04:47:01;6.50;;;3.40;;
76818;SDS011;65772;51.096;17.006;2023-07-13T04:49:32;6.60;;;3.40;;
76818;SDS011;65772;51.096;17.006;2023-07-13T04:52:04;5.90;;;2.80;;
76818;SDS011;65772;51.096;17.006;2023-07-13T04:54:36;6.30;;;2.70;;
76818;SDS011;65772;51.096;17.006;2023-07-13T04:57:07;6.50;;;2.60;;
76818;SDS011;65772;51.096;17.006;2023-07-13T04:59:37;7.20;;;2.70;;
76818;SDS011;65772;51.096;17.006;2023-07-13T05:02:08;9.30;;;3.20;;
76818;SDS011;65772;51.096;17.006;2023-07-13T05:04:39;5.50;;;3.00;;
76818;SDS011;65772;51.096;17.006;2023-07-13T05:07:09;5.30;;;2.80;;
76818;SDS011;65772;51.096;17.006;2023-07-13T05:09:40;6.30;;;2.80;;
76818;SDS011;65772;51.096;17.006;2023-07-13T05:12:11;5.90;;;2.10;;
76818;SDS011;65772;51.096;17.006;2023-07-13T05:14:41;8.60;;;4.80;;
76818;SDS011;65772;51.096;17.006;2023-07-13T05:17:12;6.50;;;3.70;;
76818;SDS011;65772;51.096;17.006;2023-07-13T05:19:42;7.00;;;2.60;;
76818;SDS011;65772;51.096;17.006;2023-07-13T05:22:13;9.80;;;2.90;;
76818;SDS011;65772;51.096;17.006;2023-07-13T05:24:43;4.70;;;2.30;;
76818;SDS011;65772;51.096;17.006;2023-07-13T05:27:14;5.60;;;2.80;;
76818;SDS011;65772;51.096;17.006;2023-07-13T05:29:44;6.60;;;2.80;;
76818;SDS011;65772;51.096;17.006;2023-07-13T05:32:15;6.10;;;2.60;;
76818;SDS011;65772;51.096;17.006;2023-07-13T05:34:46;7.20;;;2.90;;
76818;SDS011;65772;51.096;17.006;2023-07-13T05:37:16;4.30;;;2.20;;
76818;SDS011;65772;51.096;17.006;2023-07-13T05:39:47;5.20;;;2.80;;
76818;SDS011;65772;51.096;17.006;2023-07-13T05:42:17;4.60;;;2.40;;
76818;SDS011;65772;51.096;17.006;2023-07-13T05:44:48;4.10;;;2.40;;
76818;SDS011;65772;51.096;17.006;2023-07-13T05:47:18;6.70;;;2.80;;
76818;SDS011;65772;51.096;17.006;2023-07-13T05:49:49;5.20;;;2.80;;
76818;SDS011;65772;51.096;17.006;2023-07-13T05:52:19;5.20;;;2.70;;
76818;SDS011;65772;51.096;17.006;2023-07-13T05:54:50;5.60;;;2.70;;
76818;SDS011;65772;51.096;17.006;2023-07-13T05:57:20;4.90;;;2.70;;
76818;SDS011;65772;51.096;17.006;2023-07-13T05:59:51;5.50;;;2.80;;
76818;SDS011;65772;51.096;17.006;2023-07-13T06:02:21;7.80;;;3.00;;
76818;SDS011;65772;51.096;17.006;2023-07-13T06:07:22;6.40;;;2.80;;
76818;SDS011;65772;51.096;17.006;2023-07-13T06:09:53;5.40;;;2.90;;
76818;SDS011;65772;51.096;17.006;2023-07-13T06:12:24;4.40;;;2.60;;
76818;SDS011;65772;51.096;17.006;2023-07-13T06:14:55;5.10;;;3.00;;
76818;SDS011;65772;51.096;17.006;2023-07-13T06:17:25;5.10;;;2.70;;
76818;SDS011;65772;51.096;17.006;2023-07-13T06:19:56;4.80;;;2.70;;
76818;SDS011;65772;51.096;17.006;2023-07-13T06:22:26;5.60;;;2.70;;
76818;SDS011;65772;51.096;17.006;2023-07-13T06:24:57;6.70;;;3.00;;
76818;SDS011;65772;51.096;17.006;2023-07-13T06:27:28;5.60;;;2.40;;
76818;SDS011;65772;51.096;17.006;2023-07-13T06:29:59;5.80;;;2.70;;
76818;SDS011;65772;51.096;17.006;2023-07-13T06:32:29;5.20;;;2.40;;
76818;SDS011;65772;51.096;17.006;2023-07-13T06:35:00;4.90;;;2.50;;
76818;SDS011;65772;51.096;17.006;2023-07-13T06:37:31;4.50;;;2.60;;
76818;SDS011;65772;51.096;17.006;2023-07-13T06:40:01;5.70;;;3.10;;
76818;SDS011;65772;51.096;17.006;2023-07-13T06:42:33;5.10;;;2.90;;
76818;SDS011;65772;51.096;17.006;2023-07-13T06:45:07;4.70;;;2.60;;
76818;SDS011;65772;51.096;17.006;2023-07-13T06:47:38;5.00;;;2.60;;
76818;SDS011;65772;51.096;17.006;2023-07-13T06:50:09;6.60;;;3.10;;
76818;SDS011;65772;51.096;17.006;2023-07-13T06:52:40;6.20;;;3.10;;
76818;SDS011;65772;51.096;17.006;2023-07-13T06:55:10;5.70;;;3.00;;
76818;SDS011;65772;51.096;17.006;2023-07-13T06:57:41;6.50;;;3.20;;
76818;SDS011;65772;51.096;17.006;2023-07-13T07:00:13;6.30;;;3.20;;
76818;SDS011;65772;51.096;17.006;2023-07-13T07:02:44;5.90;;;3.30;;
76818;SDS011;65772;51.096;17.006;2023-07-13T07:05:15;8.40;;;3.30;;
76818;SDS011;65772;51.096;17.006;2023-07-13T07:07:49;6.80;;;3.20;;
76818;SDS011;65772;51.096;17.006;2023-07-13T07:10:20;8.00;;;3.70;;
76818;SDS011;65772;51.096;17.006;2023-07-13T07:12:51;10.10;;;3.70;;
76818;SDS011;65772;51.096;17.006;2023-07-13T07:15:21;6.30;;;3.40;;
76818;SDS011;65772;51.096;17.006;2023-07-13T07:17:52;5.50;;;3.20;;
76818;SDS011;65772;51.096;17.006;2023-07-13T07:20:23;6.30;;;3.60;;
76818;SDS011;65772;51.096;17.006;2023-07-13T07:22:54;6.00;;;3.50;;
76818;SDS011;65772;51.096;17.006;2023-07-13T07:25:24;6.60;;;3.20;;
76818;SDS011;65772;51.096;17.006;2023-07-13T07:27:55;8.30;;;3.00;;
76818;SDS011;65772;51.096;17.006;2023-07-13T07:30:28;9.20;;;3.20;;
76818;SDS011;65772;51.096;17.006;2023-07-13T07:33:02;6.50;;;3.00;;
76818;SDS011;65772;51.096;17.006;2023-07-13T07:35:33;7.00;;;3.20;;
76818;SDS011;65772;51.096;17.006;2023-07-13T07:38:23;6.00;;;3.20;;
76818;SDS011;65772;51.096;17.006;2023-07-13T07:40:54;6.90;;;3.20;;
76818;SDS011;65772;51.096;17.006;2023-07-13T07:43:27;6.60;;;3.50;;
76818;SDS011;65772;51.096;17.006;2023-07-13T07:45:59;8.30;;;3.50;;
76818;SDS011;65772;51.096;17.006;2023-07-13T07:48:30;5.70;;;3.10;;
76818;SDS011;65772;51.096;17.006;2023-07-13T07:51:01;5.20;;;3.20;;
76818;SDS011;65772;51.096;17.006;2023-07-13T07:53:31;6.30;;;3.40;;
76818;SDS011;65772;51.096;17.006;2023-07-13T07:56:02;7.40;;;3.40;;
76818;SDS011;65772;51.096;17.006;2023-07-13T07:58:53;9.10;;;5.40;;
76818;SDS011;65772;51.096;17.006;2023-07-13T08:01:26;9.00;;;3.90;;
76818;SDS011;65772;51.096;17.006;2023-07-13T08:03:59;6.10;;;3.20;;
76818;SDS011;65772;51.096;17.006;2023-07-13T08:06:33;6.30;;;3.40;;
76818;SDS011;65772;51.096;17.006;2023-07-13T08:09:07;6.20;;;3.70;;
76818;SDS011;65772;51.096;17.006;2023-07-13T08:11:37;7.30;;;4.80;;
76818;SDS011;65772;51.096;17.006;2023-07-13T08:14:11;6.80;;;4.60;;
76818;SDS011;65772;51.096;17.006;2023-07-13T08:16:41;6.00;;;4.30;;
76818;SDS011;65772;51.096;17.006;2023-07-13T08:19:12;5.40;;;3.90;;
76818;SDS011;65772;51.096;17.006;2023-07-13T08:21:42;7.50;;;3.50;;
76818;SDS011;65772;51.096;17.006;2023-07-13T08:24:16;5.50;;;3.50;;
76818;SDS011;65772;51.096;17.006;2023-07-13T08:26:46;7.70;;;3.80;;
76818;SDS011;65772;51.096;17.006;2023-07-13T08:29:17;7.10;;;4.10;;
76818;SDS011;65772;51.096;17.006;2023-07-13T08:31:49;6.50;;;3.70;;
76818;SDS011;65772;51.096;17.006;2023-07-13T08:34:19;6.00;;;3.50;;
76818;SDS011;65772;51.096;17.006;2023-07-13T08:36:50;5.10;;;3.40;;
76818;SDS011;65772;51.096;17.006;2023-07-13T08:39:20;7.20;;;3.60;;
76818;SDS011;65772;51.096;17.006;2023-07-13T08:41:52;8.00;;;4.40;;
76818;SDS011;65772;51.096;17.006;2023-07-13T08:44:30;7.60;;;4.10;;
76818;SDS011;65772;51.096;17.006;2023-07-13T08:47:17;7.80;;;4.40;;
76818;SDS011;65772;51.096;17.006;2023-07-13T08:49:51;8.30;;;4.60;;
76818;SDS011;65772;51.096;17.006;2023-07-13T08:52:26;8.90;;;4.60;;
76818;SDS011;65772;51.096;17.006;2023-07-13T08:55:04;8.20;;;4.90;;
76818;SDS011;65772;51.096;17.006;2023-07-13T08:57:41;5.90;;;4.00;;
76818;SDS011;65772;51.096;17.006;2023-07-13T09:00:14;6.20;;;4.70;;
76818;SDS011;65772;51.096;17.006;2023-07-13T09:02:46;7.70;;;4.00;;
76818;SDS011;65772;51.096;17.006;2023-07-13T09:05:25;6.00;;;3.50;;
76818;SDS011;65772;51.096;17.006;2023-07-13T09:08:04;6.20;;;3.40;;
76818;SDS011;65772;51.096;17.006;2023-07-13T09:10:59;5.70;;;3.00;;
76818;SDS011;65772;51.096;17.006;2023-07-13T09:13:47;6.00;;;3.30;;
76818;SDS011;65772;51.096;17.006;2023-07-13T09:16:26;6.50;;;3.90;;
76818;SDS011;65772;51.096;17.006;2023-07-13T09:18:58;6.70;;;3.70;;
76818;SDS011;65772;51.096;17.006;2023-07-13T09:21:33;5.10;;;2.90;;
76818;SDS011;65772;51.096;17.006;2023-07-13T09:24:28;6.70;;;2.80;;
76818;SDS011;65772;51.096;17.006;2023-07-13T09:27:05;5.90;;;3.00;;
76818;SDS011;65772;51.096;17.006;2023-07-13T09:29:47;4.20;;;2.80;;
76818;SDS011;65772;51.096;17.006;2023-07-13T09:32:23;5.10;;;3.10;;
76818;SDS011;65772;51.096;17.006;2023-07-13T09:34:55;6.30;;;3.40;;
76818;SDS011;65772;51.096;17.006;2023-07-13T09:37:27;5.60;;;2.90;;
76818;SDS011;65772;51.096;17.006;2023-07-13T09:40:01;5.70;;;3.10;;
76818;SDS011;65772;51.096;17.006;2023-07-13T09:42:37;5.00;;;3.00;;
76818;SDS011;65772;51.096;17.006;2023-07-13T09:45:07;8.50;;;2.70;;
76818;SDS011;65772;51.096;17.006;2023-07-13T09:47:39;6.50;;;2.70;;
76818;SDS011;65772;51.096;17.006;2023-07-13T09:50:15;8.10;;;3.00;;
76818;SDS011;65772;51.096;17.006;2023-07-13T09:52:47;7.20;;;2.70;;
76818;SDS011;65772;51.096;17.006;2023-07-13T09:55:27;5.80;;;2.80;;
76818;SDS011;65772;51.096;17.006;2023-07-13T09:58:08;5.40;;;2.90;;
76818;SDS011;65772;51.096;17.006;2023-07-13T10:00:42;7.60;;;2.80;;
76818;SDS011;65772;51.096;17.006;2023-07-13T10:03:23;6.00;;;3.00;;
76818;SDS011;65772;51.096;17.006;2023-07-13T10:05:55;6.10;;;3.00;;
76818;SDS011;65772;51.096;17.006;2023-07-13T10:08:39;5.70;;;2.50;;
76818;SDS011;65772;51.096;17.006;2023-07-13T10:11:10;6.80;;;2.80;;
76818;SDS011;65772;51.096;17.006;2023-07-13T10:13:48;5.50;;;3.20;;
76818;SDS011;65772;51.096;17.006;2023-07-13T10:16:23;6.10;;;2.90;;
76818;SDS011;65772;51.096;17.006;2023-07-13T10:19:02;7.70;;;2.80;;
76818;SDS011;65772;51.096;17.006;2023-07-13T10:21:36;5.80;;;2.90;;
76818;SDS011;65772;51.096;17.006;2023-07-13T10:24:12;5.60;;;2.40;;
76818;SDS011;65772;51.096;17.006;2023-07-13T10:26:48;5.50;;;2.70;;
76818;SDS011;65772;51.096;17.006;2023-07-13T10:29:23;4.40;;;2.20;;
76818;SDS011;65772;51.096;17.006;2023-07-13T10:31:57;5.80;;;2.00;;
76818;SDS011;65772;51.096;17.006;2023-07-13T10:34:28;4.00;;;2.00;;
76818;SDS011;65772;51.096;17.006;2023-07-13T10:36:59;4.60;;;2.50;;
76818;SDS011;65772;51.096;17.006;2023-07-13T10:39:31;4.40;;;2.20;;
76818;SDS011;65772;51.096;17.006;2023-07-13T10:42:05;4.00;;;1.90;;
76818;SDS011;65772;51.096;17.006;2023-07-13T10:44:43;6.30;;;2.30;;
76818;SDS011;65772;51.096;17.006;2023-07-13T10:47:14;6.20;;;2.20;;
76818;SDS011;65772;51.096;17.006;2023-07-13T10:49:53;5.00;;;2.50;;
76818;SDS011;65772;51.096;17.006;2023-07-13T10:52:40;5.10;;;2.00;;
76818;SDS011;65772;51.096;17.006;2023-07-13T10:58:13;3.60;;;2.10;;
76818;SDS011;65772;51.096;17.006;2023-07-13T11:00:49;6.70;;;2.30;;
76818;SDS011;65772;51.096;17.006;2023-07-13T11:03:25;3.70;;;2.00;;
76818;SDS011;65772;51.096;17.006;2023-07-13T11:06:07;6.00;;;2.00;;
76818;SDS011;65772;51.096;17.006;2023-07-13T11:08:50;4.20;;;2.10;;
76818;SDS011;65772;51.096;17.006;2023-07-13T11:11:36;3.30;;;1.90;;
76818;SDS011;65772;51.096;17.006;2023-07-13T11:23:15;5.40;;;2.60;;
76818;SDS011;65772;51.096;17.006;2023-07-13T11:25:49;4.00;;;2.20;;
76818;SDS011;65772;51.096;17.006;2023-07-13T11:28:22;6.10;;;2.40;;
76818;SDS011;65772;51.096;17.006;2023-07-13T11:31:02;6.20;;;2.10;;
76818;SDS011;65772;51.096;17.006;2023-07-13T11:33:53;5.10;;;2.70;;
76818;SDS011;65772;51.096;17.006;2023-07-13T11:36:31;5.70;;;2.30;;
76818;SDS011;65772;51.096;17.006;2023-07-13T11:39:16;3.90;;;2.00;;
76818;SDS011;65772;51.096;17.006;2023-07-13T11:41:52;3.80;;;2.00;;
76818;SDS011;65772;51.096;17.006;2023-07-13T11:44:26;5.50;;;2.00;;
76818;SDS011;65772;51.096;17.006;2023-07-13T11:46:59;4.80;;;2.10;;
76818;SDS011;65772;51.096;17.006;2023-07-13T11:49:41;3.80;;;2.10;;
76818;SDS011;65772;51.096;17.006;2023-07-13T11:52:15;3.90;;;2.10;;
76818;SDS011;65772;51.096;17.006;2023-07-13T11:54:49;4.20;;;1.90;;
76818;SDS011;65772;51.096;17.006;2023-07-13T11:57:25;4.70;;;2.10;;
76818;SDS011;65772;51.096;17.006;2023-07-13T11:59:59;4.00;;;2.20;;
76818;SDS011;65772;51.096;17.006;2023-07-13T12:02:36;6.50;;;2.30;;
76818;SDS011;65772;51.096;17.006;2023-07-13T12:05:11;3.90;;;2.60;;
76818;SDS011;65772;51.096;17.006;2023-07-13T12:07:45;4.10;;;2.10;;
76818;SDS011;65772;51.096;17.006;2023-07-13T12:10:18;6.10;;;2.20;;
76818;SDS011;65772;51.096;17.006;2023-07-13T12:12:53;4.90;;;2.10;;
76818;SDS011;65772;51.096;17.006;2023-07-13T12:15:28;5.60;;;2.40;;
76818;SDS011;65772;51.096;17.006;2023-07-13T12:18:14;4.30;;;2.40;;
76818;SDS011;65772;51.096;17.006;2023-07-13T12:20:48;4.90;;;2.20;;
76818;SDS011;65772;51.096;17.006;2023-07-13T12:23:23;4.10;;;2.10;;
76818;SDS011;65772;51.096;17.006;2023-07-13T12:25:58;4.90;;;2.20;;
76818;SDS011;65772;51.096;17.006;2023-07-13T12:28:32;5.30;;;2.10;;
76818;SDS011;65772;51.096;17.006;2023-07-13T12:31:05;4.50;;;2.00;;
76818;SDS011;65772;51.096;17.006;2023-07-13T12:33:57;7.60;;;1.90;;
76818;SDS011;65772;51.096;17.006;2023-07-13T12:36:30;4.50;;;1.80;;
76818;SDS011;65772;51.096;17.006;2023-07-13T12:39:05;5.30;;;2.30;;
76818;SDS011;65772;51.096;17.006;2023-07-13T12:41:43;7.20;;;2.30;;
76818;SDS011;65772;51.096;17.006;2023-07-13T12:44:15;4.70;;;1.90;;
76818;SDS011;65772;51.096;17.006;2023-07-13T12:46:55;4.30;;;1.80;;
76818;SDS011;65772;51.096;17.006;2023-07-13T12:53:49;4.70;;;2.20;;
76818;SDS011;65772;51.096;17.006;2023-07-13T12:56:26;4.50;;;2.00;;
76818;SDS011;65772;51.096;17.006;2023-07-13T12:58:58;5.50;;;2.50;;
76818;SDS011;65772;51.096;17.006;2023-07-13T13:05:37;3.90;;;1.90;;
76818;SDS011;65772;51.096;17.006;2023-07-13T13:08:10;4.30;;;2.10;;
76818;SDS011;65772;51.096;17.006;2023-07-13T13:10:41;7.60;;;2.30;;
76818;SDS011;65772;51.096;17.006;2023-07-13T13:13:13;5.10;;;2.70;;
76818;SDS011;65772;51.096;17.006;2023-07-13T13:15:44;4.30;;;2.10;;
76818;SDS011;65772;51.096;17.006;2023-07-13T13:18:18;3.30;;;1.80;;
76818;SDS011;65772;51.096;17.006;2023-07-13T13:20:51;3.60;;;1.60;;
76818;SDS011;65772;51.096;17.006;2023-07-13T13:23:21;3.80;;;1.60;;
76818;SDS011;65772;51.096;17.006;2023-07-13T13:28:22;3.50;;;1.70;;
76818;SDS011;65772;51.096;17.006;2023-07-13T13:30:52;3.60;;;1.50;;
76818;SDS011;65772;51.096;17.006;2023-07-13T13:33:23;5.70;;;1.60;;
76818;SDS011;65772;51.096;17.006;2023-07-13T13:35:53;3.70;;;1.40;;
76818;SDS011;65772;51.096;17.006;2023-07-13T13:38:25;4.40;;;1.70;;
76818;SDS011;65772;51.096;17.006;2023-07-13T13:40:56;3.70;;;1.70;;
76818;SDS011;65772;51.096;17.006;2023-07-13T13:43:27;4.60;;;1.80;;
76818;SDS011;65772;51.096;17.006;2023-07-13T13:45:57;4.90;;;2.00;;
76818;SDS011;65772;51.096;17.006;2023-07-13T13:48:30;4.10;;;1.70;;
76818;SDS011;65772;51.096;17.006;2023-07-13T13:51:09;4.50;;;1.70;;
76818;SDS011;65772;51.096;17.006;2023-07-13T13:53:47;4.40;;;1.90;;
76818;SDS011;65772;51.096;17.006;2023-07-13T13:56:18;5.30;;;1.70;;
76818;SDS011;65772;51.096;17.006;2023-07-13T13:58:49;3.70;;;1.50;;
76818;SDS011;65772;51.096;17.006;2023-07-13T14:01:20;3.40;;;1.80;;
76818;SDS011;65772;51.096;17.006;2023-07-13T14:03:52;4.00;;;1.60;;
76818;SDS011;65772;51.096;17.006;2023-07-13T14:06:24;4.40;;;1.50;;
76818;SDS011;65772;51.096;17.006;2023-07-13T14:08:55;2.80;;;1.30;;
76818;SDS011;65772;51.096;17.006;2023-07-13T14:11:26;4.10;;;1.50;;
76818;SDS011;65772;51.096;17.006;2023-07-13T14:13:58;6.70;;;4.00;;
76818;SDS011;65772;51.096;17.006;2023-07-13T14:16:32;3.90;;;1.90;;
76818;SDS011;65772;51.096;17.006;2023-07-13T14:21:32;4.70;;;1.80;;
76818;SDS011;65772;51.096;17.006;2023-07-13T14:24:03;5.10;;;2.30;;
76818;SDS011;65772;51.096;17.006;2023-07-13T14:26:35;12.70;;;8.10;;
76818;SDS011;65772;51.096;17.006;2023-07-13T14:29:11;7.80;;;4.50;;
76818;SDS011;65772;51.096;17.006;2023-07-13T14:31:48;3.70;;;1.90;;
76818;SDS011;65772;51.096;17.006;2023-07-13T14:34:19;3.60;;;1.90;;
76818;SDS011;65772;51.096;17.006;2023-07-13T14:36:50;4.00;;;2.10;;
76818;SDS011;65772;51.096;17.006;2023-07-13T14:39:22;4.10;;;1.40;;
76818;SDS011;65772;51.096;17.006;2023-07-13T14:41:54;2.80;;;1.30;;
76818;SDS011;65772;51.096;17.006;2023-07-13T14:44:26;5.20;;;1.90;;
76818;SDS011;65772;51.096;17.006;2023-07-13T14:46:59;3.90;;;1.40;;
76818;SDS011;65772;51.096;17.006;2023-07-13T14:49:33;3.80;;;1.40;;
76818;SDS011;65772;51.096;17.006;2023-07-13T14:52:09;2.50;;;1.40;;
76818;SDS011;65772;51.096;17.006;2023-07-13T14:54:42;3.40;;;1.50;;
76818;SDS011;65772;51.096;17.006;2023-07-13T14:57:14;9.20;;;6.00;;
76818;SDS011;65772;51.096;17.006;2023-07-13T14:59:48;3.80;;;1.70;;
76818;SDS011;65772;51.096;17.006;2023-07-13T15:02:22;2.70;;;1.40;;
76818;SDS011;65772;51.096;17.006;2023-07-13T15:07:26;3.20;;;1.40;;
76818;SDS011;65772;51.096;17.006;2023-07-13T15:09:58;3.50;;;1.30;;
76818;SDS011;65772;51.096;17.006;2023-07-13T15:12:30;3.40;;;1.50;;
76818;SDS011;65772;51.096;17.006;2023-07-13T15:15:00;2.60;;;1.10;;
76818;SDS011;65772;51.096;17.006;2023-07-13T15:17:34;4.40;;;1.40;;
76818;SDS011;65772;51.096;17.006;2023-07-13T15:20:11;5.20;;;1.40;;
76818;SDS011;65772;51.096;17.006;2023-07-13T15:22:47;7.00;;;1.70;;
76818;SDS011;65772;51.096;17.006;2023-07-13T15:25:19;4.60;;;1.40;;
76818;SDS011;65772;51.096;17.006;2023-07-13T15:27:52;4.00;;;1.60;;
76818;SDS011;65772;51.096;17.006;2023-07-13T15:30:26;5.30;;;1.70;;
76818;SDS011;65772;51.096;17.006;2023-07-13T15:32:59;2.80;;;1.50;;
76818;SDS011;65772;51.096;17.006;2023-07-13T15:35:38;5.30;;;2.30;;
76818;SDS011;65772;51.096;17.006;2023-07-13T15:38:16;4.20;;;1.70;;
76818;SDS011;65772;51.096;17.006;2023-07-13T15:40:48;5.20;;;1.90;;
76818;SDS011;65772;51.096;17.006;2023-07-13T15:43:19;4.00;;;1.80;;
76818;SDS011;65772;51.096;17.006;2023-07-13T15:45:50;4.30;;;1.60;;